sensor_id;sensor_type;location;lat;lon;timestamp;temperature;humidity
16134;DHT22;8172;45.018;5.972;2022-11-20T00:04:57;3.50;75.70
16134;DHT22;8172;45.018;5.972;2022-11-20T00:10:04;3.50;75.80
16134;DHT22;8172;45.018;5.972;2022-11-20T00:15:11;3.60;75.70
16134;DHT22;8172;45.018;5.972;2022-11-20T00:20:18;3.60;75.50
16134;DHT22;8172;45.018;5.972;2022-11-20T00:25:25;3.50;75.50
16134;DHT22;8172;45.018;5.972;2022-11-20T00:30:32;3.50;75.30
16134;DHT22;8172;45.018;5.972;2022-11-20T00:35:40;3.40;75.20
16134;DHT22;8172;45.018;5.972;2022-11-20T00:40:46;3.30;75.40
16134;DHT22;8172;45.018;5.972;2022-11-20T00:45:59;3.30;75.50
16134;DHT22;8172;45.018;5.972;2022-11-20T00:51:06;3.30;75.60
16134;DHT22;8172;45.018;5.972;2022-11-20T00:56:16;3.20;75.50
16134;DHT22;8172;45.018;5.972;2022-11-20T01:01:25;3.20;75.50
16134;DHT22;8172;45.018;5.972;2022-11-20T01:06:35;3.20;75.50
16134;DHT22;8172;45.018;5.972;2022-11-20T01:11:44;3.20;75.60
16134;DHT22;8172;45.018;5.972;2022-11-20T01:16:51;3.20;75.60
16134;DHT22;8172;45.018;5.972;2022-11-20T01:21:58;3.20;75.60
16134;DHT22;8172;45.018;5.972;2022-11-20T01:27:05;3.30;75.50
16134;DHT22;8172;45.018;5.972;2022-11-20T01:32:13;3.30;75.50
16134;DHT22;8172;45.018;5.972;2022-11-20T01:37:20;3.30;75.40
16134;DHT22;8172;45.018;5.972;2022-11-20T01:42:27;3.40;75.30
16134;DHT22;8172;45.018;5.972;2022-11-20T01:47:40;3.40;75.20
16134;DHT22;8172;45.018;5.972;2022-11-20T01:57:55;3.40;75.10
16134;DHT22;8172;45.018;5.972;2022-11-20T02:03:05;3.40;75.00
16134;DHT22;8172;45.018;5.972;2022-11-20T02:08:13;3.30;75.10
16134;DHT22;8172;45.018;5.972;2022-11-20T02:13:20;3.30;75.20
16134;DHT22;8172;45.018;5.972;2022-11-20T02:18:30;3.30;75.20
16134;DHT22;8172;45.018;5.972;2022-11-20T02:28:47;3.30;75.00
16134;DHT22;8172;45.018;5.972;2022-11-20T02:33:56;3.20;75.00
16134;DHT22;8172;45.018;5.972;2022-11-20T02:39:04;3.20;75.00
16134;DHT22;8172;45.018;5.972;2022-11-20T02:44:12;3.20;75.10
16134;DHT22;8172;45.018;5.972;2022-11-20T02:49:19;3.20;74.90
16134;DHT22;8172;45.018;5.972;2022-11-20T02:54:27;3.20;75.00
16134;DHT22;8172;45.018;5.972;2022-11-20T02:59:34;3.20;75.00
16134;DHT22;8172;45.018;5.972;2022-11-20T03:04:40;3.20;75.00
16134;DHT22;8172;45.018;5.972;2022-11-20T03:09:51;3.20;74.90
16134;DHT22;8172;45.018;5.972;2022-11-20T03:14:57;3.30;74.80
16134;DHT22;8172;45.018;5.972;2022-11-20T03:20:08;3.30;74.60
16134;DHT22;8172;45.018;5.972;2022-11-20T03:25:15;3.20;74.40
16134;DHT22;8172;45.018;5.972;2022-11-20T03:30:22;3.10;74.50
16134;DHT22;8172;45.018;5.972;2022-11-20T03:35:31;3.10;74.40
16134;DHT22;8172;45.018;5.972;2022-11-20T03:40:38;3.10;74.30
16134;DHT22;8172;45.018;5.972;2022-11-20T03:45:45;3.10;74.30
16134;DHT22;8172;45.018;5.972;2022-11-20T03:50:53;3.10;74.30
16134;DHT22;8172;45.018;5.972;2022-11-20T03:56:03;3.10;74.30
16134;DHT22;8172;45.018;5.972;2022-11-20T04:01:17;3.10;74.30
16134;DHT22;8172;45.018;5.972;2022-11-20T04:06:22;3.10;74.30
16134;DHT22;8172;45.018;5.972;2022-11-20T04:11:31;3.10;74.20
16134;DHT22;8172;45.018;5.972;2022-11-20T04:16:39;3.10;74.10
16134;DHT22;8172;45.018;5.972;2022-11-20T04:21:46;3.10;74.00
16134;DHT22;8172;45.018;5.972;2022-11-20T04:26:53;3.10;73.70
16134;DHT22;8172;45.018;5.972;2022-11-20T04:32:00;3.00;73.40
16134;DHT22;8172;45.018;5.972;2022-11-20T04:37:07;3.00;73.30
16134;DHT22;8172;45.018;5.972;2022-11-20T04:42:14;2.90;73.10
16134;DHT22;8172;45.018;5.972;2022-11-20T04:47:23;2.90;72.90
16134;DHT22;8172;45.018;5.972;2022-11-20T04:52:30;2.80;72.80
16134;DHT22;8172;45.018;5.972;2022-11-20T04:57:37;2.70;72.80
16134;DHT22;8172;45.018;5.972;2022-11-20T05:02:44;2.70;72.70
16134;DHT22;8172;45.018;5.972;2022-11-20T05:07:51;2.70;72.50
16134;DHT22;8172;45.018;5.972;2022-11-20T05:12:58;2.60;72.50
16134;DHT22;8172;45.018;5.972;2022-11-20T05:18:05;2.60;72.60
16134;DHT22;8172;45.018;5.972;2022-11-20T05:23:13;2.60;72.60
16134;DHT22;8172;45.018;5.972;2022-11-20T05:28:20;2.60;72.80
16134;DHT22;8172;45.018;5.972;2022-11-20T05:33:27;2.60;72.90
16134;DHT22;8172;45.018;5.972;2022-11-20T05:38:34;2.60;72.80
16134;DHT22;8172;45.018;5.972;2022-11-20T05:43:42;2.60;72.60
16134;DHT22;8172;45.018;5.972;2022-11-20T05:48:50;2.60;72.60
16134;DHT22;8172;45.018;5.972;2022-11-20T05:54:03;2.50;72.50
16134;DHT22;8172;45.018;5.972;2022-11-20T05:59:10;2.40;72.50
16134;DHT22;8172;45.018;5.972;2022-11-20T06:04:17;2.40;72.50
16134;DHT22;8172;45.018;5.972;2022-11-20T06:09:24;2.30;72.30
16134;DHT22;8172;45.018;5.972;2022-11-20T06:14:30;2.30;72.30
16134;DHT22;8172;45.018;5.972;2022-11-20T06:19:39;2.30;72.20
16134;DHT22;8172;45.018;5.972;2022-11-20T06:24:46;2.30;72.20
16134;DHT22;8172;45.018;5.972;2022-11-20T06:29:53;2.30;72.20
16134;DHT22;8172;45.018;5.972;2022-11-20T06:34:59;2.30;72.10
16134;DHT22;8172;45.018;5.972;2022-11-20T06:40:07;2.30;71.90
16134;DHT22;8172;45.018;5.972;2022-11-20T06:45:14;2.20;71.80
16134;DHT22;8172;45.018;5.972;2022-11-20T06:50:21;2.20;71.70
16134;DHT22;8172;45.018;5.972;2022-11-20T06:55:28;2.10;71.70
16134;DHT22;8172;45.018;5.972;2022-11-20T07:00:36;2.10;71.50
16134;DHT22;8172;45.018;5.972;2022-11-20T07:05:43;2.10;71.40
16134;DHT22;8172;45.018;5.972;2022-11-20T07:10:51;2.10;71.30
16134;DHT22;8172;45.018;5.972;2022-11-20T07:16:01;2.10;71.40
16134;DHT22;8172;45.018;5.972;2022-11-20T07:21:10;2.10;71.30
16134;DHT22;8172;45.018;5.972;2022-11-20T07:26:17;2.10;71.30
16134;DHT22;8172;45.018;5.972;2022-11-20T07:31:25;2.00;71.20
16134;DHT22;8172;45.018;5.972;2022-11-20T07:36:32;2.00;71.20
16134;DHT22;8172;45.018;5.972;2022-11-20T07:41:39;2.00;71.20
16134;DHT22;8172;45.018;5.972;2022-11-20T07:46:46;2.00;71.30
16134;DHT22;8172;45.018;5.972;2022-11-20T07:51:53;2.00;71.30
16134;DHT22;8172;45.018;5.972;2022-11-20T07:57:01;2.00;71.20
16134;DHT22;8172;45.018;5.972;2022-11-20T08:02:10;2.10;71.00
16134;DHT22;8172;45.018;5.972;2022-11-20T08:07:17;2.10;71.00
16134;DHT22;8172;45.018;5.972;2022-11-20T08:12:24;2.10;70.80
16134;DHT22;8172;45.018;5.972;2022-11-20T08:17:33;2.10;70.70
16134;DHT22;8172;45.018;5.972;2022-11-20T08:22:39;2.10;70.70
16134;DHT22;8172;45.018;5.972;2022-11-20T08:27:46;2.10;70.60
16134;DHT22;8172;45.018;5.972;2022-11-20T08:32:54;2.10;70.60
16134;DHT22;8172;45.018;5.972;2022-11-20T08:38:02;2.10;70.70
16134;DHT22;8172;45.018;5.972;2022-11-20T08:43:09;2.20;70.60
16134;DHT22;8172;45.018;5.972;2022-11-20T08:48:16;2.20;70.50
16134;DHT22;8172;45.018;5.972;2022-11-20T08:53:22;2.30;70.40
16134;DHT22;8172;45.018;5.972;2022-11-20T08:58:29;2.30;70.40
16134;DHT22;8172;45.018;5.972;2022-11-20T09:03:38;2.30;70.40
16134;DHT22;8172;45.018;5.972;2022-11-20T09:08:45;2.40;70.30
16134;DHT22;8172;45.018;5.972;2022-11-20T09:13:52;2.50;70.20
16134;DHT22;8172;45.018;5.972;2022-11-20T09:18:59;2.50;70.20
16134;DHT22;8172;45.018;5.972;2022-11-20T09:24:07;2.60;70.20
16134;DHT22;8172;45.018;5.972;2022-11-20T09:29:14;2.70;70.00
16134;DHT22;8172;45.018;5.972;2022-11-20T09:34:22;2.80;70.00
16134;DHT22;8172;45.018;5.972;2022-11-20T09:39:29;2.90;69.90
16134;DHT22;8172;45.018;5.972;2022-11-20T09:49:57;3.10;69.60
16134;DHT22;8172;45.018;5.972;2022-11-20T09:54:56;3.20;69.40
16134;DHT22;8172;45.018;5.972;2022-11-20T10:00:05;3.30;69.10
16134;DHT22;8172;45.018;5.972;2022-11-20T10:16:46;3.50;68.90
16134;DHT22;8172;45.018;5.972;2022-11-20T10:20:49;3.60;68.70
16134;DHT22;8172;45.018;5.972;2022-11-20T10:31:11;3.70;68.70
16134;DHT22;8172;45.018;5.972;2022-11-20T10:36:17;3.80;69.40
16134;DHT22;8172;45.018;5.972;2022-11-20T10:41:26;3.90;69.00
16134;DHT22;8172;45.018;5.972;2022-11-20T10:46:38;3.90;69.40
16134;DHT22;8172;45.018;5.972;2022-11-20T10:56:56;4.20;68.90
16134;DHT22;8172;45.018;5.972;2022-11-20T11:12:27;4.30;69.70
16134;DHT22;8172;45.018;5.972;2022-11-20T11:17:35;4.30;69.70
16134;DHT22;8172;45.018;5.972;2022-11-20T11:22:47;4.30;69.70
16134;DHT22;8172;45.018;5.972;2022-11-20T11:27:54;4.30;69.60
16134;DHT22;8172;45.018;5.972;2022-11-20T11:33:04;4.30;69.70
16134;DHT22;8172;45.018;5.972;2022-11-20T11:38:16;4.30;69.90
16134;DHT22;8172;45.018;5.972;2022-11-20T11:43:26;4.30;70.20
16134;DHT22;8172;45.018;5.972;2022-11-20T11:48:34;4.30;70.10
16134;DHT22;8172;45.018;5.972;2022-11-20T11:53:43;4.30;70.10
16134;DHT22;8172;45.018;5.972;2022-11-20T11:58:51;4.30;70.30
16134;DHT22;8172;45.018;5.972;2022-11-20T12:09:11;4.40;69.80
16134;DHT22;8172;45.018;5.972;2022-11-20T12:14:21;4.50;69.90
16134;DHT22;8172;45.018;5.972;2022-11-20T12:19:33;4.50;69.80
16134;DHT22;8172;45.018;5.972;2022-11-20T12:29:54;4.70;69.60
16134;DHT22;8172;45.018;5.972;2022-11-20T12:35:04;4.90;69.10
16134;DHT22;8172;45.018;5.972;2022-11-20T12:40:17;4.90;69.00
16134;DHT22;8172;45.018;5.972;2022-11-20T12:45:22;5.00;68.70
16134;DHT22;8172;45.018;5.972;2022-11-20T12:55:41;5.20;68.50
16134;DHT22;8172;45.018;5.972;2022-11-20T13:00:49;5.30;68.40
16134;DHT22;8172;45.018;5.972;2022-11-20T13:16:16;5.40;68.40
16134;DHT22;8172;45.018;5.972;2022-11-20T13:21:35;5.40;68.30
16134;DHT22;8172;45.018;5.972;2022-11-20T13:26:33;5.50;68.30
16134;DHT22;8172;45.018;5.972;2022-11-20T13:31:43;5.50;68.10
16134;DHT22;8172;45.018;5.972;2022-11-20T13:36:53;5.60;67.90
16134;DHT22;8172;45.018;5.972;2022-11-20T13:42:03;5.70;68.00
16134;DHT22;8172;45.018;5.972;2022-11-20T13:47:20;5.90;67.40
16134;DHT22;8172;45.018;5.972;2022-11-20T14:02:39;5.90;66.00
16134;DHT22;8172;45.018;5.972;2022-11-20T14:07:47;5.80;65.60
16134;DHT22;8172;45.018;5.972;2022-11-20T14:12:55;5.60;65.60
16134;DHT22;8172;45.018;5.972;2022-11-20T14:18:13;5.40;65.60
16134;DHT22;8172;45.018;5.972;2022-11-20T14:23:12;5.30;65.40
16134;DHT22;8172;45.018;5.972;2022-11-20T14:28:24;5.10;65.50
16134;DHT22;8172;45.018;5.972;2022-11-20T14:33:29;5.00;65.90
16134;DHT22;8172;45.018;5.972;2022-11-20T14:38:38;4.90;66.20
16134;DHT22;8172;45.018;5.972;2022-11-20T14:43:56;4.80;66.50
16134;DHT22;8172;45.018;5.972;2022-11-20T14:48:59;4.70;66.60
16134;DHT22;8172;45.018;5.972;2022-11-20T14:54:08;4.60;66.60
16134;DHT22;8172;45.018;5.972;2022-11-20T14:59:21;4.50;66.50
16134;DHT22;8172;45.018;5.972;2022-11-20T15:04:25;4.40;66.80
16134;DHT22;8172;45.018;5.972;2022-11-20T15:09:32;4.30;67.10
16134;DHT22;8172;45.018;5.972;2022-11-20T15:14:39;4.30;67.30
16134;DHT22;8172;45.018;5.972;2022-11-20T15:19:46;4.20;67.40
16134;DHT22;8172;45.018;5.972;2022-11-20T15:24:53;4.20;67.50
16134;DHT22;8172;45.018;5.972;2022-11-20T15:30:00;4.20;67.50
16134;DHT22;8172;45.018;5.972;2022-11-20T15:35:08;4.10;67.50
16134;DHT22;8172;45.018;5.972;2022-11-20T15:40:15;4.10;67.60
16134;DHT22;8172;45.018;5.972;2022-11-20T15:45:26;4.00;67.50
16134;DHT22;8172;45.018;5.972;2022-11-20T15:50:34;4.00;67.60
16134;DHT22;8172;45.018;5.972;2022-11-20T15:55:41;4.00;67.60
16134;DHT22;8172;45.018;5.972;2022-11-20T16:00:48;3.90;67.40
16134;DHT22;8172;45.018;5.972;2022-11-20T16:05:55;3.80;67.50
16134;DHT22;8172;45.018;5.972;2022-11-20T16:11:03;3.80;67.50
16134;DHT22;8172;45.018;5.972;2022-11-20T16:16:16;3.70;67.70
16134;DHT22;8172;45.018;5.972;2022-11-20T16:21:20;3.70;67.90
16134;DHT22;8172;45.018;5.972;2022-11-20T16:26:29;3.70;68.00
16134;DHT22;8172;45.018;5.972;2022-11-20T16:31:37;3.60;68.10
16134;DHT22;8172;45.018;5.972;2022-11-20T16:36:44;3.60;68.30
16134;DHT22;8172;45.018;5.972;2022-11-20T16:41:51;3.60;68.40
16134;DHT22;8172;45.018;5.972;2022-11-20T16:46:58;3.70;68.60
16134;DHT22;8172;45.018;5.972;2022-11-20T16:52:05;3.70;68.70
16134;DHT22;8172;45.018;5.972;2022-11-20T16:57:13;3.70;68.70
16134;DHT22;8172;45.018;5.972;2022-11-20T17:02:21;3.70;69.10
16134;DHT22;8172;45.018;5.972;2022-11-20T17:07:28;3.70;69.20
16134;DHT22;8172;45.018;5.972;2022-11-20T17:12:35;3.70;69.40
16134;DHT22;8172;45.018;5.972;2022-11-20T17:17:42;3.80;69.50
16134;DHT22;8172;45.018;5.972;2022-11-20T17:22:49;3.80;69.40
16134;DHT22;8172;45.018;5.972;2022-11-20T17:27:56;3.80;69.50
16134;DHT22;8172;45.018;5.972;2022-11-20T17:33:03;3.90;69.50
16134;DHT22;8172;45.018;5.972;2022-11-20T17:38:10;3.90;69.30
16134;DHT22;8172;45.018;5.972;2022-11-20T17:43:17;3.90;69.40
16134;DHT22;8172;45.018;5.972;2022-11-20T17:48:25;3.90;69.50
16134;DHT22;8172;45.018;5.972;2022-11-20T17:53:35;3.90;69.50
16134;DHT22;8172;45.018;5.972;2022-11-20T17:58:43;4.00;69.50
16134;DHT22;8172;45.018;5.972;2022-11-20T18:03:50;4.00;69.40
16134;DHT22;8172;45.018;5.972;2022-11-20T18:08:59;4.00;69.50
16134;DHT22;8172;45.018;5.972;2022-11-20T18:14:09;4.00;69.50
16134;DHT22;8172;45.018;5.972;2022-11-20T18:19:20;4.00;69.50
16134;DHT22;8172;45.018;5.972;2022-11-20T18:24:27;4.00;69.40
16134;DHT22;8172;45.018;5.972;2022-11-20T18:29:34;4.00;69.40
16134;DHT22;8172;45.018;5.972;2022-11-20T18:34:43;4.00;69.50
16134;DHT22;8172;45.018;5.972;2022-11-20T18:39:51;4.00;69.70
16134;DHT22;8172;45.018;5.972;2022-11-20T18:44:58;4.00;70.00
16134;DHT22;8172;45.018;5.972;2022-11-20T18:50:08;3.90;70.10
16134;DHT22;8172;45.018;5.972;2022-11-20T18:55:15;3.80;70.30
16134;DHT22;8172;45.018;5.972;2022-11-20T19:00:22;3.70;70.70
16134;DHT22;8172;45.018;5.972;2022-11-20T19:05:29;3.70;71.00
16134;DHT22;8172;45.018;5.972;2022-11-20T19:10:37;3.70;71.20
16134;DHT22;8172;45.018;5.972;2022-11-20T19:15:45;3.70;71.20
16134;DHT22;8172;45.018;5.972;2022-11-20T19:20:52;3.70;71.40
16134;DHT22;8172;45.018;5.972;2022-11-20T19:25:59;3.60;71.50
16134;DHT22;8172;45.018;5.972;2022-11-20T19:31:10;3.60;71.70
16134;DHT22;8172;45.018;5.972;2022-11-20T19:36:17;3.50;71.80
16134;DHT22;8172;45.018;5.972;2022-11-20T19:41:27;3.30;72.00
16134;DHT22;8172;45.018;5.972;2022-11-20T19:46:35;3.30;72.30
16134;DHT22;8172;45.018;5.972;2022-11-20T19:51:46;3.30;72.40
16134;DHT22;8172;45.018;5.972;2022-11-20T19:56:53;3.30;72.40
16134;DHT22;8172;45.018;5.972;2022-11-20T20:02:00;3.30;72.60
16134;DHT22;8172;45.018;5.972;2022-11-20T20:07:08;3.20;72.80
16134;DHT22;8172;45.018;5.972;2022-11-20T20:12:15;3.10;73.00
16134;DHT22;8172;45.018;5.972;2022-11-20T20:17:22;3.10;73.10
16134;DHT22;8172;45.018;5.972;2022-11-20T20:22:29;3.20;73.20
16134;DHT22;8172;45.018;5.972;2022-11-20T20:27:36;3.30;73.30
16134;DHT22;8172;45.018;5.972;2022-11-20T20:32:43;3.40;73.20
16134;DHT22;8172;45.018;5.972;2022-11-20T20:37:51;3.40;73.10
16134;DHT22;8172;45.018;5.972;2022-11-20T20:42:59;3.50;73.10
16134;DHT22;8172;45.018;5.972;2022-11-20T20:48:06;3.50;73.20
16134;DHT22;8172;45.018;5.972;2022-11-20T20:53:13;3.50;73.20
16134;DHT22;8172;45.018;5.972;2022-11-20T20:58:20;3.50;73.10
16134;DHT22;8172;45.018;5.972;2022-11-20T21:03:27;3.50;73.00
16134;DHT22;8172;45.018;5.972;2022-11-20T21:13:55;3.40;73.10
16134;DHT22;8172;45.018;5.972;2022-11-20T21:19:02;3.40;73.10
16134;DHT22;8172;45.018;5.972;2022-11-20T21:24:09;3.40;73.20
16134;DHT22;8172;45.018;5.972;2022-11-20T21:29:17;3.40;73.30
16134;DHT22;8172;45.018;5.972;2022-11-20T21:34:24;3.40;73.30
16134;DHT22;8172;45.018;5.972;2022-11-20T21:39:32;3.40;73.30
16134;DHT22;8172;45.018;5.972;2022-11-20T21:44:39;3.40;73.30
16134;DHT22;8172;45.018;5.972;2022-11-20T21:49:47;3.40;73.30
16134;DHT22;8172;45.018;5.972;2022-11-20T21:54:55;3.40;73.40
16134;DHT22;8172;45.018;5.972;2022-11-20T22:00:05;3.40;73.40
16134;DHT22;8172;45.018;5.972;2022-11-20T22:05:14;3.50;73.50
16134;DHT22;8172;45.018;5.972;2022-11-20T22:10:21;3.50;73.50
16134;DHT22;8172;45.018;5.972;2022-11-20T22:15:28;3.50;73.70
16134;DHT22;8172;45.018;5.972;2022-11-20T22:20:38;3.50;73.70
16134;DHT22;8172;45.018;5.972;2022-11-20T22:25:45;3.50;73.70
16134;DHT22;8172;45.018;5.972;2022-11-20T22:30:51;3.50;73.70
16134;DHT22;8172;45.018;5.972;2022-11-20T22:36:02;3.50;73.80
16134;DHT22;8172;45.018;5.972;2022-11-20T22:41:11;3.50;73.90
16134;DHT22;8172;45.018;5.972;2022-11-20T22:46:19;3.40;74.00
16134;DHT22;8172;45.018;5.972;2022-11-20T22:51:28;3.50;74.10
16134;DHT22;8172;45.018;5.972;2022-11-20T22:56:35;3.40;74.20
16134;DHT22;8172;45.018;5.972;2022-11-20T23:01:42;3.40;74.20
16134;DHT22;8172;45.018;5.972;2022-11-20T23:06:49;3.40;74.20
16134;DHT22;8172;45.018;5.972;2022-11-20T23:11:56;3.40;74.10
16134;DHT22;8172;45.018;5.972;2022-11-20T23:17:03;3.40;73.80
16134;DHT22;8172;45.018;5.972;2022-11-20T23:22:10;3.40;73.70
16134;DHT22;8172;45.018;5.972;2022-11-20T23:27:17;3.30;73.70
16134;DHT22;8172;45.018;5.972;2022-11-20T23:32:25;3.30;73.80
16134;DHT22;8172;45.018;5.972;2022-11-20T23:37:32;3.30;73.90
16134;DHT22;8172;45.018;5.972;2022-11-20T23:42:39;3.30;73.80
16134;DHT22;8172;45.018;5.972;2022-11-20T23:47:47;3.30;73.80
16134;DHT22;8172;45.018;5.972;2022-11-20T23:52:54;3.30;74.00
16134;DHT22;8172;45.018;5.972;2022-11-20T23:58:02;3.30;74.10
